CheckWX is a tool to help pilots better visualize weather data.  It is not intended as a substitute for an official pre-flight weather briefing.

14:55:44 UTC

GVNP TAF
Praia International Airport
Praia, Cape Verde
TAF GVNP 191100Z 1912/2018 03017KT 9999 FEW013 PROB40 TEMPO 1912/1919 03018G28KT

Nov-19@
12:00 UTC

Nov-19 @ 12:00 UTC

Nov-20@
18:00 UTC

Nov-20 @ 18:00 UTC

TAF GVNP 191100Z 1912/2018 03017KT 9999 FEW013
Wind
  • 030° at 17 KTS
Cloud Levels
  • Few at 1,300' AGL

Nov-19@
12:00 UTC

Nov-19 @ 12:00 UTC

Nov-19@
19:00 UTC

Nov-19 @ 19:00 UTC

PROB40 TEMPO 1912/1919 03018G28KT

Temporary - 40% Likelihood

Temporary - 40% Likelihood during this time.

Wind
  • 030° at 18 KTS
  • {Gusting to 28 KTS